Strona główna
METAR-TAF:

METAR-TAF

Lotnisko :

Adirondack Regional Airport

Saranac Lake, Nowy Jork, Stany Zjednoczone

Szerokość geograficzna: 44-23-35N, Długość geograficzna: 074-12-10W, wysokość: 507 m

Aktualna obserwacja pogody

Raport powstał 27 minut temu, godzina 00:51 UTC
Wiatr 4 kt od południowy zachód
Temperatura -17°C
Wilgotność 71%
Ciśnienie 1024 hPa
Widzialność: 16.1 km
bezchmurnie

METAR: KSLK 210051Z AUTO 22004KT 10SM CLR M17/M21 A3025 RMK AO2 SLP289 T11721206

czas: 20:18 (01:18 UTC)

Prognoza

Raport powstał 1 godzina i 40 minut temu, godzina 23:38 UTC
Prognoza ważna od 21 godzina 00 UTC do 21 godzina 24 UTC
Wiatr 4 kt od zachodnio-południowy zachód
Widzialność: 10 km
bezchmurnie
Od 21 godzina 0500 UTC
Wiatr 6 kt od zachodnio-południowy zachód
Widzialność: 10 km
Mało chmury na wysokości 15000 ft
Od 21 godzina 1500 UTC
Wiatr 7 kt od zachodnio-południowy zachód
Widzialność: 10 km
Przerywane chmury na wysokości 15000 ft

TAF: KSLK 202338Z 2100/2124 24004KT P6SM SKC FM210500 25006KT P6SM FEW150 FM211500 25007KT P6SM BKN150

Obserwacja i prognoza pogody dla ponad 4000 lotnisk (raport METAR i TAF).

Dostępne stacje oznaczono żółtymi i czerwonymi punktami na mapie.

Najedź kursorem aby zobaczyć nazwę stacji.

Kliknij aby zobaczyć obserwacje i prognozy pogody.

Aby zmienić mapę: kliknij na zielony przycisk z czarnym krzyżykiem, aby powiększyć; na zielony przycisk z myślnikiem, aby pomniejszyć; na zielone strzałki, aby przejść do map sąsiednich.


METAR-TAF: